createdAt,value
2019-02-18T00:00:40.673Z,0.60
2019-02-18T00:03:09.135Z,0.60
2019-02-18T00:05:35.770Z,0.70
2019-02-18T00:08:02.321Z,0.70
2019-02-18T00:10:28.905Z,0.70
2019-02-18T00:12:55.772Z,0.60
2019-02-18T00:15:22.324Z,0.70
2019-02-18T00:17:49.117Z,0.70
2019-02-18T00:20:15.655Z,0.70
2019-02-18T00:22:42.202Z,0.70
2019-02-18T00:25:08.762Z,0.70
2019-02-18T00:27:35.302Z,0.70
2019-02-18T00:30:02.352Z,0.80
2019-02-18T00:32:29.296Z,0.70
2019-02-18T00:34:55.821Z,0.70
2019-02-18T00:37:24.751Z,0.60
2019-02-18T00:39:50.776Z,0.70
2019-02-18T00:42:17.296Z,0.70
2019-02-18T00:44:43.845Z,0.70
2019-02-18T00:47:10.396Z,0.70
2019-02-18T00:49:36.976Z,0.60
2019-02-18T00:52:03.545Z,0.60
2019-02-18T00:54:30.129Z,0.60
2019-02-18T00:56:56.648Z,0.50
2019-02-18T00:59:23.205Z,0.40
2019-02-18T01:01:49.744Z,0.50
2019-02-18T01:04:16.323Z,0.40
2019-02-18T01:06:42.885Z,0.50
2019-02-18T01:09:09.456Z,0.40
2019-02-18T01:11:36.479Z,0.30
2019-02-18T01:14:03.019Z,0.20
2019-02-18T01:16:29.686Z,0.20
2019-02-18T01:18:56.230Z,0.10
2019-02-18T01:21:22.808Z,0.10
2019-02-18T01:23:49.452Z,0.10
2019-02-18T01:26:16.006Z,0.10
2019-02-18T01:28:42.581Z,0.10
2019-02-18T01:31:09.126Z,0.00
2019-02-18T01:33:35.662Z,0.00
2019-02-18T01:36:02.228Z,0.00
2019-02-18T01:38:28.791Z,0.00
2019-02-18T01:41:16.111Z,-0.10
2019-02-18T01:43:42.673Z,-0.10
2019-02-18T01:46:10.411Z,0.00
2019-02-18T01:48:36.953Z,0.00
2019-02-18T01:51:03.500Z,-0.10
2019-02-18T01:53:30.085Z,-0.10
2019-02-18T01:55:56.653Z,-0.20
2019-02-18T01:58:23.242Z,-0.10
2019-02-18T02:00:49.775Z,-0.10
2019-02-18T02:03:16.429Z,-0.10
2019-02-18T02:05:43.372Z,-0.10
2019-02-18T02:08:09.938Z,-0.10
2019-02-18T02:10:36.506Z,-0.10
2019-02-18T02:13:25.654Z,-0.10
2019-02-18T02:15:52.189Z,-0.10
2019-02-18T02:18:18.728Z,-0.20
2019-02-18T02:20:45.315Z,-0.20
2019-02-18T02:23:11.848Z,-0.30
2019-02-18T02:25:38.439Z,-0.30
2019-02-18T02:28:04.983Z,-0.40
2019-02-18T02:30:31.545Z,-0.40
2019-02-18T02:32:58.081Z,-0.40
2019-02-18T02:35:24.645Z,-0.40
2019-02-18T02:37:51.161Z,-0.40
2019-02-18T02:40:17.770Z,-0.50
2019-02-18T02:42:44.334Z,-0.50
2019-02-18T02:45:10.878Z,-0.40
2019-02-18T02:47:38.631Z,-0.40
2019-02-18T02:50:05.978Z,-0.40
2019-02-18T02:52:32.564Z,-0.30
2019-02-18T02:54:59.107Z,-0.40
2019-02-18T02:57:25.722Z,-0.40
2019-02-18T02:59:52.247Z,-0.40
2019-02-18T03:02:18.823Z,-0.50
2019-02-18T03:04:45.382Z,-0.50
2019-02-18T03:07:11.943Z,-0.40
2019-02-18T03:09:38.495Z,-0.40
2019-02-18T03:12:05.053Z,-0.50
2019-02-18T03:14:31.588Z,-0.50
2019-02-18T03:16:58.124Z,-0.60
2019-02-18T03:19:25.385Z,-0.60
2019-02-18T03:21:51.917Z,-0.70
2019-02-18T03:24:18.447Z,-0.80
2019-02-18T03:26:45.029Z,-0.80
2019-02-18T03:29:18.181Z,-0.80
2019-02-18T03:31:44.745Z,-0.80
2019-02-18T03:34:17.859Z,-1.00
2019-02-18T03:36:44.396Z,-1.10
2019-02-18T03:39:10.933Z,-1.10
2019-02-18T03:41:37.510Z,-1.10
2019-02-18T03:44:04.038Z,-1.30
2019-02-18T03:46:30.595Z,-1.30
2019-02-18T03:48:57.151Z,-1.20
2019-02-18T03:51:23.710Z,-1.10
2019-02-18T03:53:50.285Z,-1.30
2019-02-18T03:56:16.851Z,-1.20
2019-02-18T03:58:43.381Z,-1.10
2019-02-18T04:01:09.981Z,-1.10
2019-02-18T04:03:36.527Z,-1.00
2019-02-18T04:06:03.085Z,-1.00
2019-02-18T04:08:29.641Z,-1.00
2019-02-18T04:10:57.085Z,-1.00
2019-02-18T04:13:24.313Z,-1.00
2019-02-18T04:15:50.897Z,-1.00
2019-02-18T04:18:17.401Z,-1.00
2019-02-18T04:20:43.983Z,-1.00
2019-02-18T04:23:10.552Z,-1.00
2019-02-18T04:25:37.135Z,-0.90
2019-02-18T04:28:03.673Z,-1.00
2019-02-18T04:30:30.229Z,-1.00
2019-02-18T04:32:56.785Z,-1.10
2019-02-18T04:35:23.313Z,-1.00
2019-02-18T04:37:49.844Z,-1.00
2019-02-18T04:40:16.386Z,-0.90
2019-02-18T04:42:42.934Z,-0.90
2019-02-18T04:45:09.472Z,-1.00
2019-02-18T04:47:36.018Z,-1.10
2019-02-18T04:50:03.469Z,-1.20
2019-02-18T04:52:30.127Z,-1.20
2019-02-18T04:54:56.678Z,-1.20
2019-02-18T04:57:23.246Z,-1.20
2019-02-18T04:59:49.803Z,-1.20
2019-02-18T05:02:16.371Z,-1.20
2019-02-18T05:04:42.954Z,-1.30
2019-02-18T05:07:09.493Z,-1.30
2019-02-18T05:09:39.853Z,-1.40
2019-02-18T05:12:05.873Z,-1.40
2019-02-18T05:14:33.648Z,-1.50
2019-02-18T05:17:00.178Z,-1.50
2019-02-18T05:19:26.719Z,-1.60
2019-02-18T05:21:53.263Z,-1.70
2019-02-18T05:24:19.831Z,-1.70
2019-02-18T05:26:46.362Z,-1.70
2019-02-18T05:29:12.916Z,-1.60
2019-02-18T05:31:40.576Z,-1.60
2019-02-18T05:34:07.109Z,-1.60
2019-02-18T05:36:33.686Z,-1.60
2019-02-18T05:39:01.129Z,-1.50
2019-02-18T05:41:27.811Z,-1.50
2019-02-18T05:43:54.422Z,-1.50
2019-02-18T05:46:20.981Z,-1.50
2019-02-18T05:48:47.511Z,-1.50
2019-02-18T05:51:14.058Z,-1.50
2019-02-18T05:53:40.613Z,-1.50
2019-02-18T05:56:07.161Z,-1.50
2019-02-18T05:58:34.739Z,-1.40
2019-02-18T06:01:01.308Z,-1.60
2019-02-18T06:03:27.849Z,-1.50
2019-02-18T06:05:54.415Z,-1.40
2019-02-18T06:08:20.982Z,-1.40
2019-02-18T06:10:47.523Z,-1.50
2019-02-18T06:13:14.049Z,-1.50
2019-02-18T06:15:40.597Z,-1.60
2019-02-18T06:18:07.930Z,-1.50
2019-02-18T06:20:34.453Z,-1.50
2019-02-18T06:23:00.994Z,-1.50
2019-02-18T06:25:27.540Z,-1.50
2019-02-18T06:27:54.076Z,-1.40
2019-02-18T06:30:20.633Z,-1.40
2019-02-18T06:32:47.184Z,-1.50
2019-02-18T06:35:13.709Z,-1.50
2019-02-18T06:37:40.256Z,-1.50
2019-02-18T06:40:07.523Z,-1.50
2019-02-18T06:42:34.075Z,-1.60
2019-02-18T06:45:02.543Z,-1.50
2019-02-18T06:47:29.114Z,-1.40
2019-02-18T06:49:55.681Z,-1.50
2019-02-18T06:52:22.245Z,-1.40
2019-02-18T06:54:48.766Z,-1.40
2019-02-18T06:57:17.231Z,-1.20
2019-02-18T06:59:45.184Z,-1.00
2019-02-18T07:02:19.703Z,-1.00
2019-02-18T07:04:54.230Z,-0.90
2019-02-18T07:07:22.661Z,-0.80
2019-02-18T07:09:57.328Z,-0.60
2019-02-18T07:12:25.782Z,-0.30
2019-02-18T07:14:52.332Z,-0.30
2019-02-18T07:17:18.895Z,-0.30
2019-02-18T07:19:45.418Z,-0.10
2019-02-18T07:22:11.952Z,0.10
2019-02-18T07:24:38.516Z,0.30
2019-02-18T07:27:05.075Z,0.30
2019-02-18T07:29:34.015Z,0.40
2019-02-18T07:31:59.991Z,0.40
2019-02-18T07:34:27.226Z,0.50
2019-02-18T07:36:53.824Z,0.60
2019-02-18T07:39:20.394Z,0.80
2019-02-18T07:41:46.966Z,0.90
2019-02-18T07:44:13.547Z,0.90
2019-02-18T07:46:40.138Z,0.90
2019-02-18T07:49:06.702Z,1.00
2019-02-18T07:51:33.268Z,1.10
2019-02-18T07:53:59.946Z,1.20
2019-02-18T07:56:26.476Z,1.30
2019-02-18T07:58:53.063Z,1.40
2019-02-18T08:01:19.597Z,1.60
2019-02-18T08:03:46.165Z,1.70
2019-02-18T08:06:12.749Z,1.70
2019-02-18T08:08:39.384Z,1.90
2019-02-18T08:11:05.916Z,2.00
2019-02-18T08:13:32.466Z,2.10
2019-02-18T08:15:59.041Z,2.30
2019-02-18T08:18:25.575Z,2.40
2019-02-18T08:20:52.106Z,2.60
2019-02-18T08:23:18.647Z,2.40
2019-02-18T08:25:45.270Z,2.80
2019-02-18T08:28:11.796Z,2.90
2019-02-18T08:30:38.352Z,3.10
2019-02-18T08:33:04.975Z,3.20
2019-02-18T08:35:31.511Z,3.30
2019-02-18T08:37:58.070Z,3.50
2019-02-18T08:40:24.605Z,3.70
2019-02-18T08:42:51.265Z,3.90
2019-02-18T08:45:18.856Z,4.00
2019-02-18T08:47:45.547Z,4.10
2019-02-18T08:50:12.116Z,4.10
2019-02-18T08:52:38.682Z,4.20
2019-02-18T08:55:10.208Z,4.50
2019-02-18T08:57:36.864Z,4.70
2019-02-18T09:00:07.210Z,5.00
2019-02-18T09:02:35.381Z,5.10
2019-02-18T09:05:03.169Z,5.10
2019-02-18T09:07:29.717Z,5.30
2019-02-18T09:09:57.355Z,5.40
2019-02-18T09:12:23.885Z,5.40
2019-02-18T09:14:50.450Z,5.60
2019-02-18T09:17:17.005Z,5.80
2019-02-18T09:19:43.582Z,6.10
2019-02-18T09:22:20.698Z,6.40
2019-02-18T09:24:49.140Z,6.40
2019-02-18T09:27:15.709Z,6.50
2019-02-18T09:29:42.237Z,6.70
2019-02-18T09:32:08.780Z,6.90
2019-02-18T09:34:35.337Z,7.30
2019-02-18T09:37:01.876Z,7.30
2019-02-18T09:39:31.496Z,7.90
2019-02-18T09:41:56.752Z,7.80
2019-02-18T09:44:23.314Z,8.00
2019-02-18T09:46:49.875Z,8.20
2019-02-18T09:49:16.426Z,8.00
2019-02-18T09:51:43.015Z,8.30
2019-02-18T09:54:09.547Z,8.50
2019-02-18T09:56:36.960Z,8.60
2019-02-18T09:59:03.768Z,8.70
2019-02-18T10:01:31.412Z,9.00
2019-02-18T10:03:58.040Z,9.10
2019-02-18T10:06:24.597Z,9.40
2019-02-18T10:08:51.127Z,9.70
2019-02-18T10:11:17.692Z,9.90
2019-02-18T10:13:44.234Z,9.80
2019-02-18T10:16:11.886Z,10.30
2019-02-18T10:18:38.431Z,10.40
2019-02-18T10:21:04.985Z,10.40
2019-02-18T10:23:31.581Z,10.70
2019-02-18T10:25:58.143Z,10.80
2019-02-18T10:28:24.692Z,10.80
2019-02-18T10:30:51.226Z,10.90
2019-02-18T10:33:17.791Z,11.00
2019-02-18T10:35:44.332Z,11.40
2019-02-18T10:38:10.901Z,11.70
2019-02-18T10:40:37.453Z,11.70
2019-02-18T10:43:04.001Z,11.40
2019-02-18T10:45:30.526Z,11.80
2019-02-18T10:47:57.087Z,12.20
2019-02-18T10:50:23.642Z,12.50
2019-02-18T10:52:50.200Z,12.30
2019-02-18T10:55:17.279Z,12.50
2019-02-18T10:57:43.825Z,12.90
2019-02-18T11:00:12.583Z,13.30
2019-02-18T11:02:39.283Z,13.50
2019-02-18T11:05:06.572Z,13.80
2019-02-18T11:07:33.503Z,13.80
2019-02-18T11:10:00.320Z,13.90
2019-02-18T11:12:26.930Z,14.40
2019-02-18T11:14:54.677Z,14.80
2019-02-18T11:17:21.309Z,15.20
2019-02-18T11:19:48.968Z,16.20
2019-02-18T11:22:15.795Z,19.00
2019-02-18T11:24:42.344Z,22.80
2019-02-18T11:27:08.970Z,25.80
2019-02-18T11:29:48.571Z,27.40
2019-02-18T11:32:15.129Z,28.30
2019-02-18T11:34:41.657Z,28.00
2019-02-18T11:37:08.530Z,28.50
2019-02-18T11:39:35.081Z,28.20
2019-02-18T11:42:01.684Z,30.00
2019-02-18T11:44:28.242Z,29.50
2019-02-18T11:46:54.811Z,30.50
2019-02-18T11:49:21.408Z,31.00
2019-02-18T11:51:47.958Z,31.60
2019-02-18T11:54:14.902Z,32.30
2019-02-18T11:56:41.440Z,31.90
2019-02-18T11:59:08.008Z,33.20
2019-02-18T12:01:34.560Z,32.20
2019-02-18T12:04:01.133Z,32.80
2019-02-18T12:06:27.706Z,31.00
2019-02-18T12:08:55.479Z,32.90
2019-02-18T12:11:22.011Z,33.90
2019-02-18T12:13:48.856Z,35.10
2019-02-18T12:16:15.411Z,34.90
2019-02-18T12:18:41.993Z,33.60
2019-02-18T12:21:08.557Z,33.90
2019-02-18T12:23:35.234Z,34.70
2019-02-18T12:26:01.771Z,35.20
2019-02-18T12:28:28.323Z,35.20
2019-02-18T12:30:55.251Z,36.10
2019-02-18T12:33:22.194Z,36.60
2019-02-18T12:35:48.744Z,36.20
2019-02-18T12:38:17.348Z,36.50
2019-02-18T12:40:43.652Z,35.00
2019-02-18T12:43:10.203Z,35.20
2019-02-18T12:45:36.768Z,36.60
2019-02-18T12:48:03.311Z,35.10
2019-02-18T12:50:29.908Z,35.20
2019-02-18T12:52:56.691Z,36.10
2019-02-18T12:55:23.279Z,35.90
2019-02-18T12:57:50.295Z,36.70
2019-02-18T13:00:17.003Z,37.90
2019-02-18T13:02:45.063Z,37.50
2019-02-18T13:05:13.242Z,37.70
2019-02-18T13:07:39.803Z,38.80
2019-02-18T13:10:07.957Z,37.80
2019-02-18T13:12:34.610Z,37.40
2019-02-18T13:15:01.570Z,37.10
2019-02-18T13:17:28.235Z,37.00
2019-02-18T13:19:54.806Z,37.60
2019-02-18T13:22:21.364Z,36.90
2019-02-18T13:24:47.897Z,36.90
2019-02-18T13:27:14.450Z,36.90
2019-02-18T13:29:41.011Z,37.00
2019-02-18T13:32:07.582Z,36.50
2019-02-18T13:34:34.192Z,36.90
2019-02-18T13:37:01.157Z,38.40
2019-02-18T13:39:28.007Z,37.90
2019-02-18T13:41:54.559Z,36.70
2019-02-18T13:44:21.116Z,36.40
2019-02-18T13:46:47.675Z,36.60
2019-02-18T13:49:14.254Z,38.10
2019-02-18T13:51:40.831Z,38.20
2019-02-18T13:54:07.356Z,37.50
2019-02-18T13:56:33.917Z,37.10
2019-02-18T13:59:00.468Z,36.70
2019-02-18T14:01:27.026Z,35.60
2019-02-18T14:03:53.568Z,34.80
2019-02-18T14:06:20.180Z,34.90
2019-02-18T14:08:46.714Z,35.50
2019-02-18T14:11:13.269Z,36.70
2019-02-18T14:13:39.936Z,36.10
2019-02-18T14:16:06.482Z,36.40
2019-02-18T14:18:33.015Z,36.10
2019-02-18T14:20:59.562Z,36.20
2019-02-18T14:23:26.092Z,36.50
2019-02-18T14:25:52.663Z,35.20
2019-02-18T14:28:19.212Z,34.60
2019-02-18T14:30:45.779Z,34.70
2019-02-18T14:33:13.062Z,34.70
2019-02-18T14:35:39.622Z,33.70
2019-02-18T14:38:06.233Z,33.70
2019-02-18T14:40:32.907Z,32.90
2019-02-18T14:42:59.484Z,30.30
2019-02-18T14:45:26.026Z,27.00
2019-02-18T14:47:52.591Z,25.30
2019-02-18T14:50:19.162Z,23.80
2019-02-18T14:52:46.278Z,22.50
2019-02-18T14:55:13.939Z,21.30
2019-02-18T14:57:40.504Z,20.10
2019-02-18T15:00:20.075Z,19.30
2019-02-18T15:02:46.853Z,18.90
2019-02-18T15:05:13.470Z,18.20
2019-02-18T15:07:40.505Z,17.60
2019-02-18T15:10:08.977Z,17.20
2019-02-18T15:12:35.616Z,16.70
2019-02-18T15:15:03.253Z,16.40
2019-02-18T15:17:30.927Z,16.20
2019-02-18T15:19:57.464Z,15.80
2019-02-18T15:22:23.989Z,15.70
2019-02-18T15:24:50.948Z,15.30
2019-02-18T15:27:17.792Z,14.90
2019-02-18T15:29:44.349Z,14.80
2019-02-18T15:32:11.005Z,14.40
2019-02-18T15:34:37.671Z,14.30
2019-02-18T15:37:04.241Z,14.10
2019-02-18T15:39:30.901Z,14.00
2019-02-18T15:41:57.490Z,13.90
2019-02-18T15:44:24.523Z,13.80
2019-02-18T15:46:51.197Z,13.60
2019-02-18T15:49:17.845Z,13.30
2019-02-18T15:51:44.412Z,13.20
2019-02-18T15:54:11.102Z,13.00
2019-02-18T15:56:37.639Z,12.80
2019-02-18T15:59:04.187Z,12.70
2019-02-18T16:01:30.846Z,12.40
2019-02-18T16:03:57.678Z,12.30
2019-02-18T16:06:24.244Z,12.20
2019-02-18T16:08:50.934Z,11.90
2019-02-18T16:11:17.507Z,11.70
2019-02-18T16:13:46.663Z,11.50
2019-02-18T16:16:13.220Z,11.40
2019-02-18T16:18:39.802Z,11.00
2019-02-18T16:21:06.367Z,11.00
2019-02-18T16:23:32.949Z,10.90
2019-02-18T16:25:59.498Z,10.60
2019-02-18T16:28:26.066Z,10.50
2019-02-18T16:30:52.623Z,10.30
2019-02-18T16:33:20.586Z,10.00
2019-02-18T16:35:47.142Z,9.90
2019-02-18T16:38:13.754Z,9.80
2019-02-18T16:40:40.281Z,9.90
2019-02-18T16:43:08.559Z,9.80
2019-02-18T16:45:37.796Z,9.60
2019-02-18T16:48:07.273Z,9.40
2019-02-18T16:50:34.987Z,9.30
2019-02-18T16:53:01.576Z,9.20
2019-02-18T16:55:33.140Z,9.20
2019-02-18T16:58:06.851Z,8.80
2019-02-18T17:00:35.256Z,8.70
2019-02-18T17:03:03.151Z,8.70
2019-02-18T17:05:29.804Z,8.60
2019-02-18T17:07:56.356Z,8.60
2019-02-18T17:10:22.953Z,8.30
2019-02-18T17:12:49.835Z,8.20
2019-02-18T17:15:16.629Z,8.20
2019-02-18T17:17:43.350Z,8.20
2019-02-18T17:20:10.073Z,8.10
2019-02-18T17:22:36.752Z,8.10
2019-02-18T17:25:06.210Z,7.80
2019-02-18T17:27:37.134Z,7.70
2019-02-18T17:30:11.876Z,7.50
2019-02-18T17:32:38.518Z,7.50
2019-02-18T17:35:08.894Z,7.30
2019-02-18T17:37:35.596Z,7.20
2019-02-18T17:40:04.500Z,7.20
2019-02-18T17:42:33.020Z,7.10
2019-02-18T17:45:00.268Z,7.10
2019-02-18T17:47:29.523Z,6.90
2019-02-18T17:53:10.071Z,6.60
2019-02-18T17:55:53.356Z,6.70
2019-02-18T17:58:25.542Z,6.70
2019-02-18T18:00:54.019Z,6.80
2019-02-18T18:03:21.291Z,6.60
2019-02-18T18:05:49.015Z,6.60
2019-02-18T18:08:28.853Z,6.60
2019-02-18T18:10:58.626Z,6.60
2019-02-18T18:13:31.702Z,6.60
2019-02-18T18:16:00.261Z,6.50
2019-02-18T18:18:26.813Z,6.50
2019-02-18T18:20:53.435Z,6.40
2019-02-18T18:23:20.009Z,6.40
2019-02-18T18:25:46.754Z,6.20
2019-02-18T18:28:13.417Z,6.30
2019-02-18T18:30:40.090Z,6.10
2019-02-18T18:33:06.845Z,6.20
2019-02-18T18:35:34.010Z,6.00
2019-02-18T18:38:00.997Z,6.10
2019-02-18T18:40:27.568Z,6.00
2019-02-18T18:42:54.168Z,6.00
2019-02-18T18:45:20.758Z,6.00
2019-02-18T18:47:47.414Z,5.80
2019-02-18T18:50:17.006Z,5.90
2019-02-18T18:52:43.939Z,5.80
2019-02-18T18:55:10.630Z,5.70
2019-02-18T18:57:37.292Z,5.60
2019-02-18T19:00:07.662Z,5.60
2019-02-18T19:02:36.104Z,5.50
2019-02-18T19:05:05.463Z,5.40
2019-02-18T19:07:32.334Z,5.50
2019-02-18T19:09:58.886Z,5.50
2019-02-18T19:12:25.429Z,5.30
2019-02-18T19:14:52.002Z,5.50
2019-02-18T19:17:18.584Z,5.40
2019-02-18T19:19:45.265Z,5.10
2019-02-18T19:22:11.845Z,5.10
2019-02-18T19:24:38.559Z,5.10
2019-02-18T19:27:05.423Z,5.20
2019-02-18T19:29:31.997Z,5.20
2019-02-18T19:31:58.558Z,5.20
2019-02-18T19:34:25.156Z,5.10
2019-02-18T19:36:52.141Z,4.90
2019-02-18T19:39:18.692Z,4.70
2019-02-18T19:41:45.583Z,4.60
2019-02-18T19:44:13.150Z,4.30
2019-02-18T19:46:39.884Z,4.20
2019-02-18T19:49:06.521Z,4.00
2019-02-18T19:51:33.161Z,4.20
2019-02-18T19:53:59.800Z,4.20
2019-02-18T19:56:26.529Z,3.80
2019-02-18T19:58:53.125Z,4.00
2019-02-18T20:01:19.716Z,4.00
2019-02-18T20:03:46.308Z,4.00
2019-02-18T20:06:12.935Z,4.00
2019-02-18T20:08:39.508Z,3.90
2019-02-18T20:11:06.086Z,3.90
2019-02-18T20:13:32.839Z,3.80
2019-02-18T20:15:59.541Z,3.80
2019-02-18T20:18:27.196Z,3.70
2019-02-18T20:20:54.063Z,3.80
2019-02-18T20:23:20.835Z,3.80
2019-02-18T20:25:47.483Z,3.80
2019-02-18T20:28:14.111Z,3.80
2019-02-18T20:30:40.694Z,3.90
2019-02-18T20:33:07.382Z,3.70
2019-02-18T20:35:33.930Z,3.60
2019-02-18T20:38:01.561Z,3.50
2019-02-18T20:40:28.367Z,3.50
2019-02-18T20:42:54.961Z,3.50
2019-02-18T20:45:21.617Z,3.50
2019-02-18T20:47:48.263Z,3.40
2019-02-18T20:50:14.974Z,3.60
2019-02-18T20:52:41.651Z,3.50
2019-02-18T20:55:10.499Z,3.50
2019-02-18T20:57:37.178Z,3.50
2019-02-18T21:00:09.815Z,3.40
2019-02-18T21:02:36.486Z,3.50
2019-02-18T21:05:04.381Z,3.50
2019-02-18T21:07:30.935Z,3.50
2019-02-18T21:09:57.631Z,3.50
2019-02-18T21:12:24.704Z,3.50
2019-02-18T21:14:55.403Z,3.40
2019-02-18T21:17:25.213Z,3.30
2019-02-18T21:19:55.110Z,3.10
2019-02-18T21:22:21.901Z,3.10
2019-02-18T21:24:48.721Z,3.10
2019-02-18T21:27:15.681Z,3.00
2019-02-18T21:29:43.060Z,2.90
2019-02-18T21:32:10.097Z,3.00
2019-02-18T21:34:40.179Z,3.00
2019-02-18T21:37:07.205Z,2.90
2019-02-18T21:39:34.141Z,2.90
2019-02-18T21:42:00.853Z,2.80
2019-02-18T21:44:28.405Z,2.70
2019-02-18T21:46:55.508Z,2.70
2019-02-18T21:49:22.103Z,2.70
2019-02-18T21:51:48.721Z,2.60
2019-02-18T21:54:15.247Z,2.60
2019-02-18T21:56:41.827Z,2.50
2019-02-18T21:59:08.526Z,2.10
2019-02-18T22:01:35.257Z,2.10
2019-02-18T22:04:02.241Z,2.00
2019-02-18T22:06:28.811Z,2.00
2019-02-18T22:08:55.399Z,2.00
2019-02-18T22:11:22.226Z,2.10
2019-02-18T22:13:49.124Z,2.20
2019-02-18T22:16:15.806Z,2.20
2019-02-18T22:18:42.583Z,2.20
2019-02-18T22:21:09.461Z,2.30
2019-02-18T22:23:36.245Z,2.30
2019-02-18T22:26:03.160Z,2.20
2019-02-18T22:28:30.322Z,2.10
2019-02-18T22:30:57.321Z,2.00
2019-02-18T22:33:25.290Z,1.90
2019-02-18T22:35:52.010Z,1.90
2019-02-18T22:38:18.584Z,1.90
2019-02-18T22:40:45.188Z,1.90
2019-02-18T22:43:11.773Z,1.90
2019-02-18T22:45:38.542Z,1.90
2019-02-18T22:48:05.072Z,1.80
2019-02-18T22:50:31.659Z,1.80
2019-02-18T22:52:58.237Z,2.00
2019-02-18T22:55:24.816Z,2.00
2019-02-18T22:57:51.394Z,1.80
2019-02-18T23:00:45.158Z,1.80
2019-02-18T23:03:12.261Z,1.70
2019-02-18T23:05:38.930Z,1.80
2019-02-18T23:08:05.539Z,1.80
2019-02-18T23:10:32.323Z,1.70
2019-02-18T23:12:58.967Z,1.60
2019-02-18T23:15:25.562Z,1.70
2019-02-18T23:17:52.440Z,1.50
2019-02-18T23:20:20.129Z,1.50
2019-02-18T23:22:46.705Z,1.40
2019-02-18T23:25:13.336Z,1.20
2019-02-18T23:27:40.431Z,1.00
2019-02-18T23:30:07.575Z,0.80
2019-02-18T23:32:34.267Z,0.90
2019-02-18T23:35:00.874Z,0.80
2019-02-18T23:37:27.858Z,1.00
2019-02-18T23:39:54.460Z,1.10
2019-02-18T23:42:21.004Z,1.00
2019-02-18T23:44:47.791Z,1.10
2019-02-18T23:47:14.465Z,1.10
2019-02-18T23:49:41.023Z,1.10
2019-02-18T23:52:07.933Z,1.10
2019-02-18T23:54:34.816Z,1.20
2019-02-18T23:57:01.883Z,1.20
2019-02-18T23:59:28.571Z,1.20
